Time;durP1;ratioP1;P1;durP2;ratioP2;P2;SDS_P1;SDS_P2;PMS_P1;PMS_P2;Temp;Humidity;BMP_temperature;BMP_pressure;BME280_temperature;BME280_humidity;BME280_pressure;Samples;Min_cycle;Max_cycle;Signal;HPM_P1;HPM_P2
2021/12/12 00:00:39;;;;;;;74.47;15.83;;;;;;;;;;5059133;28;20454;-95
2021/12/12 00:03:14;;;;;;;75.07;16.47;;;;;;;;;;5059176;28;20434;-95
2021/12/12 00:05:43;;;;;;;75.67;16.10;;;;;;;;;;5059195;28;20468;-95
2021/12/12 00:08:09;;;;;;;74.33;16.27;;;;;;;;;;5058880;28;21128;-95
2021/12/12 00:10:37;;;;;;;73.67;15.97;;;;;;;;;;5058704;28;20477;-94
2021/12/12 00:13:07;;;;;;;73.70;15.10;;;;;;;;;;5056865;28;20525;-94
2021/12/12 00:15:34;;;;;;;71.17;15.23;;;;;;;;;;5058986;28;20472;-94
2021/12/12 00:18:00;;;;;;;77.67;18.90;;;;;;;;;;5058998;28;20451;-94
2021/12/12 00:20:27;;;;;;;75.40;16.40;;;;;;;;;;5058187;28;21162;-94
2021/12/12 00:22:58;;;;;;;75.13;17.30;;;;;;;;;;5056590;28;20450;-94
2021/12/12 00:25:26;;;;;;;70.47;14.07;;;;;;;;;;5058246;28;21458;-94
2021/12/12 00:27:52;;;;;;;70.03;13.10;;;;;;;;;;5058979;28;20470;-93
2021/12/12 00:30:20;;;;;;;71.83;14.87;;;;;;;;;;5058645;28;20464;-94
2021/12/12 00:32:49;;;;;;;74.97;16.83;;;;;;;;;;5057559;28;20489;-94
2021/12/12 00:35:16;;;;;;;75.50;15.60;;;;;;;;;;5058248;28;20507;-94
2021/12/12 00:37:43;;;;;;;73.70;15.43;;;;;;;;;;5058425;28;20454;-92
2021/12/12 00:40:12;;;;;;;70.17;13.53;;;;;;;;;;5058156;28;20489;-93
2021/12/12 00:42:39;;;;;;;69.17;13.90;;;;;;;;;;5055800;28;20465;-92
2021/12/12 00:45:08;;;;;;;70.00;13.10;;;;;;;;;;5056995;28;20468;-94
2021/12/12 00:47:36;;;;;;;67.50;11.17;;;;;;;;;;5057682;28;20447;-93
2021/12/12 00:50:04;;;;;;;68.87;11.63;;;;;;;;;;5058612;28;20496;-92
2021/12/12 00:52:31;;;;;;;66.00;10.53;;;;;;;;;;5058525;28;21012;-92
2021/12/12 00:54:57;;;;;;;70.37;9.70;;;;;;;;;;5058551;28;20446;-92
2021/12/12 00:57:24;;;;;;;65.60;9.20;;;;;;;;;;5058272;28;20493;-93
2021/12/12 00:59:50;;;;;;;64.97;9.27;;;;;;;;;;5058595;28;20446;-94
2021/12/12 01:02:20;;;;;;;67.17;10.43;;;;;;;;;;5057483;28;20465;-95
2021/12/12 01:04:49;;;;;;;68.37;10.20;;;;;;;;;;5058540;28;20486;-95
2021/12/12 01:07:17;;;;;;;67.97;9.50;;;;;;;;;;5056119;28;20442;-93
2021/12/12 01:09:46;;;;;;;64.67;9.40;;;;;;;;;;5057021;28;21857;-94
2021/12/12 01:12:15;;;;;;;65.10;9.47;;;;;;;;;;5058209;28;20575;-94
2021/12/12 01:14:43;;;;;;;64.37;9.00;;;;;;;;;;5057561;28;20450;-94
2021/12/12 01:17:11;;;;;;;65.00;9.57;;;;;;;;;;5058282;28;20473;-94
2021/12/12 01:19:41;;;;;;;63.80;8.30;;;;;;;;;;5058095;28;20441;-93
2021/12/12 01:22:15;;;;;;;64.00;8.67;;;;;;;;;;5057940;28;20446;-94
2021/12/12 01:24:44;;;;;;;63.27;8.60;;;;;;;;;;5059455;28;20450;-94
2021/12/12 01:27:11;;;;;;;64.50;9.40;;;;;;;;;;5061625;28;20460;-96
2021/12/12 01:29:38;;;;;;;63.37;9.20;;;;;;;;;;5061601;28;20442;-96
2021/12/12 01:32:06;;;;;;;66.77;10.50;;;;;;;;;;5062008;28;20531;-94
2021/12/12 01:34:34;;;;;;;65.27;10.00;;;;;;;;;;5062450;28;20449;-96
2021/12/12 01:37:22;;;;;;;63.97;9.17;;;;;;;;;;5061906;28;20442;-96
2021/12/12 01:39:51;;;;;;;64.13;8.77;;;;;;;;;;5062664;28;20512;-96
2021/12/12 01:42:19;;;;;;;67.70;9.57;;;;;;;;;;5061081;28;20458;-96
2021/12/12 01:44:48;;;;;;;65.63;9.80;;;;;;;;;;5061385;28;20461;-94
2021/12/12 01:47:16;;;;;;;63.63;8.80;;;;;;;;;;5061482;28;20606;-93
2021/12/12 01:49:44;;;;;;;64.17;9.30;;;;;;;;;;5061725;28;20565;-93
2021/12/12 01:52:13;;;;;;;65.20;9.40;;;;;;;;;;5061487;28;20482;-95
2021/12/12 01:54:44;;;;;;;64.50;9.10;;;;;;;;;;5061535;28;20501;-95
2021/12/12 01:57:13;;;;;;;66.17;10.50;;;;;;;;;;5061707;28;20465;-95
2021/12/12 01:59:41;;;;;;;66.30;10.47;;;;;;;;;;5061684;28;20442;-96
2021/12/12 02:02:09;;;;;;;68.60;11.70;;;;;;;;;;5058679;28;20438;-96
2021/12/12 02:04:37;;;;;;;65.27;10.20;;;;;;;;;;5059594;28;20461;-96
2021/12/12 02:07:06;;;;;;;68.00;9.90;;;;;;;;;;5060754;28;20468;-94
2021/12/12 02:09:33;;;;;;;68.57;10.17;;;;;;;;;;5061414;28;20453;-93
2021/12/12 02:12:00;;;;;;;68.47;10.80;;;;;;;;;;5058493;28;20519;-94
2021/12/12 02:14:31;;;;;;;65.20;9.03;;;;;;;;;;5058997;28;20499;-94
2021/12/12 02:16:59;;;;;;;65.17;9.43;;;;;;;;;;5061337;28;20446;-94
2021/12/12 02:19:33;;;;;;;65.20;9.60;;;;;;;;;;5061211;28;20446;-94
2021/12/12 02:22:06;;;;;;;67.00;10.57;;;;;;;;;;5061308;28;20473;-96
2021/12/12 02:35:07;;;;;;;65.03;9.60;;;;;;;;;;5061506;28;20525;-94
2021/12/12 02:35:44;;;;;;;67.77;10.27;;;;;;;;;;5060468;28;20509;-96
2021/12/12 02:38:15;;;;;;;67.33;11.70;;;;;;;;;;5064437;28;20532;-96
2021/12/12 02:40:45;;;;;;;68.20;11.93;;;;;;;;;;5046236;28;20541;-96
2021/12/12 02:43:12;;;;;;;67.50;11.87;;;;;;;;;;5062961;28;21010;-96
2021/12/12 02:45:40;;;;;;;72.53;15.03;;;;;;;;;;5067728;28;20449;-96
2021/12/12 02:48:09;;;;;;;78.03;17.83;;;;;;;;;;5062288;28;20434;-96
2021/12/12 02:50:39;;;;;;;79.73;18.57;;;;;;;;;;5060982;28;20438;-96
2021/12/12 02:53:11;;;;;;;82.77;20.00;;;;;;;;;;5061913;28;20485;-96
2021/12/12 02:55:40;;;;;;;82.93;19.40;;;;;;;;;;5061331;28;20521;-96
2021/12/12 02:58:10;;;;;;;81.43;20.13;;;;;;;;;;5060636;28;20450;-96
2021/12/12 03:00:39;;;;;;;78.37;17.53;;;;;;;;;;5060253;28;20537;-95
2021/12/12 03:03:07;;;;;;;79.17;18.67;;;;;;;;;;5059545;28;20442;-96
2021/12/12 03:05:35;;;;;;;80.10;18.87;;;;;;;;;;5059656;28;20472;-96
2021/12/12 03:08:02;;;;;;;77.27;17.07;;;;;;;;;;5058533;28;20442;-96
2021/12/12 03:10:30;;;;;;;77.47;16.70;;;;;;;;;;5058918;28;20484;-96
2021/12/12 03:12:56;;;;;;;75.87;16.13;;;;;;;;;;5059367;28;20505;-95
2021/12/12 03:15:26;;;;;;;71.50;13.33;;;;;;;;;;5060287;28;20449;-96
2021/12/12 03:17:53;;;;;;;77.20;17.27;;;;;;;;;;5061415;28;20452;-96
2021/12/12 03:20:24;;;;;;;79.83;17.53;;;;;;;;;;5061679;28;20454;-96
2021/12/12 03:22:57;;;;;;;83.63;19.30;;;;;;;;;;5067335;28;20465;-96
2021/12/12 03:28:16;;;;;;;78.77;18.23;;;;;;;;;;5063827;28;20581;-96
2021/12/12 03:30:46;;;;;;;75.30;17.07;;;;;;;;;;5063957;28;20457;-96
2021/12/12 03:33:13;;;;;;;83.83;18.33;;;;;;;;;;5063467;28;20588;-96
2021/12/12 03:35:40;;;;;;;167.33;21.40;;;;;;;;;;5061453;28;20446;-96
2021/12/12 03:38:07;;;;;;;86.50;19.70;;;;;;;;;;5058938;28;20438;-96
2021/12/12 03:40:35;;;;;;;85.67;17.80;;;;;;;;;;5058534;28;20519;-96
2021/12/12 03:43:02;;;;;;;77.23;16.13;;;;;;;;;;5058616;28;20442;-95
2021/12/12 03:45:29;;;;;;;77.00;15.20;;;;;;;;;;5059425;28;20445;-96
2021/12/12 03:48:00;;;;;;;81.27;16.47;;;;;;;;;;5060328;28;20458;-96
2021/12/12 03:53:16;;;;;;;84.37;18.43;;;;;;;;;;5065601;28;20497;-96
2021/12/12 03:55:47;;;;;;;79.80;17.57;;;;;;;;;;5068066;28;20446;-96
2021/12/12 03:58:14;;;;;;;79.70;18.40;;;;;;;;;;5068270;28;20453;-96
2021/12/12 04:00:46;;;;;;;85.00;19.10;;;;;;;;;;5065934;28;20430;-96
2021/12/12 04:06:06;;;;;;;81.53;18.20;;;;;;;;;;5067437;28;20440;-96
2021/12/12 04:08:35;;;;;;;82.30;18.83;;;;;;;;;;5065719;28;20454;-96
2021/12/12 04:11:02;;;;;;;79.00;16.80;;;;;;;;;;5065483;28;20521;-96
2021/12/12 04:13:29;;;;;;;75.80;15.00;;;;;;;;;;5062745;28;20488;-96
2021/12/12 04:15:57;;;;;;;77.73;16.40;;;;;;;;;;5064345;28;20439;-96
2021/12/12 04:18:26;;;;;;;77.27;17.00;;;;;;;;;;5062260;28;20453;-96
2021/12/12 04:20:53;;;;;;;79.40;16.80;;;;;;;;;;5058848;28;20932;-96
2021/12/12 04:23:21;;;;;;;78.90;17.47;;;;;;;;;;5058799;28;20493;-94
2021/12/12 04:25:48;;;;;;;79.70;18.30;;;;;;;;;;5061385;28;20450;-96
2021/12/12 04:28:15;;;;;;;83.37;20.67;;;;;;;;;;5066617;28;20465;-96
2021/12/12 04:30:44;;;;;;;84.63;21.17;;;;;;;;;;5072660;28;20418;-96
2021/12/12 04:33:11;;;;;;;83.57;18.30;;;;;;;;;;5067014;28;20500;-96
2021/12/12 04:35:39;;;;;;;81.37;18.33;;;;;;;;;;5062080;28;20875;-96
2021/12/12 04:38:06;;;;;;;74.20;15.47;;;;;;;;;;5059218;28;20829;-96
2021/12/12 04:40:33;;;;;;;76.93;16.40;;;;;;;;;;5059310;28;20438;-96
2021/12/12 04:46:04;;;;;;;77.83;16.40;;;;;;;;;;5175810;22;20469;-96
2021/12/12 04:51:26;;;;;;;75.87;16.90;;;;;;;;;;5061961;28;20480;-96
2021/12/12 04:53:56;;;;;;;77.73;17.20;;;;;;;;;;5065190;28;20560;-96
2021/12/12 04:56:26;;;;;;;76.00;16.00;;;;;;;;;;5065227;28;20481;-96
2021/12/12 05:01:42;;;;;;;75.47;17.23;;;;;;;;;;5071620;28;20523;-96
2021/12/12 05:04:11;;;;;;;75.43;16.27;;;;;;;;;;5058353;28;20541;-96
2021/12/12 05:06:44;;;;;;;73.20;14.50;;;;;;;;;;5067120;28;20511;-96
2021/12/12 05:09:15;;;;;;;74.97;14.23;;;;;;;;;;5063676;28;20446;-96
2021/12/12 05:11:46;;;;;;;70.87;13.83;;;;;;;;;;5060197;28;20445;-96
2021/12/12 05:14:13;;;;;;;70.90;13.63;;;;;;;;;;5061761;28;20548;-96
2021/12/12 05:16:44;;;;;;;72.47;13.60;;;;;;;;;;5066570;28;20557;-96
2021/12/12 05:19:13;;;;;;;72.57;14.53;;;;;;;;;;5065987;28;20449;-96
2021/12/12 05:21:46;;;;;;;73.73;16.00;;;;;;;;;;5065669;28;20431;-96
2021/12/12 05:24:14;;;;;;;75.20;15.53;;;;;;;;;;5057713;28;20517;-96
2021/12/12 05:26:43;;;;;;;72.10;14.00;;;;;;;;;;5057958;28;20441;-96
2021/12/12 05:29:14;;;;;;;71.57;14.00;;;;;;;;;;5057521;28;20438;-96
2021/12/12 05:31:41;;;;;;;74.33;14.20;;;;;;;;;;5058520;28;20992;-96
2021/12/12 05:37:16;;;;;;;85.17;20.00;;;;;;;;;;5326897;22;20493;-96
2021/12/12 05:39:43;;;;;;;85.90;21.93;;;;;;;;;;5059191;28;20438;-96
2021/12/12 05:42:12;;;;;;;84.53;20.83;;;;;;;;;;5063906;28;20442;-96
2021/12/12 05:44:40;;;;;;;92.33;20.50;;;;;;;;;;5065383;28;20462;-96
2021/12/12 05:49:49;;;;;;;84.63;19.50;;;;;;;;;;5059930;28;20533;-96
2021/12/12 05:52:20;;;;;;;82.17;20.27;;;;;;;;;;5056755;28;20477;-96
2021/12/12 05:54:48;;;;;;;81.70;19.37;;;;;;;;;;5055686;28;20486;-96
2021/12/12 05:57:16;;;;;;;91.37;22.87;;;;;;;;;;5057338;28;20466;-96
2021/12/12 05:59:43;;;;;;;83.43;19.10;;;;;;;;;;5057406;28;20445;-96
2021/12/12 06:02:11;;;;;;;79.77;18.77;;;;;;;;;;5058025;28;20438;-96
2021/12/12 06:04:38;;;;;;;82.10;21.13;;;;;;;;;;5059003;28;20465;-96
2021/12/12 06:09:36;;;;;;;94.70;25.57;;;;;;;;;;5023439;28;20492;-96
2021/12/12 06:12:06;;;;;;;97.27;28.13;;;;;;;;;;5021372;28;20444;-96
2021/12/12 06:14:34;;;;;;;102.07;29.70;;;;;;;;;;5027048;28;20888;-96
2021/12/12 06:17:02;;;;;;;93.77;26.80;;;;;;;;;;5022509;28;20440;-96
2021/12/12 06:19:31;;;;;;;92.87;26.77;;;;;;;;;;5021933;28;20448;-96
2021/12/12 06:21:59;;;;;;;92.50;26.37;;;;;;;;;;5020235;28;20521;-96
2021/12/12 06:24:26;;;;;;;94.17;27.03;;;;;;;;;;5020506;28;20455;-96
2021/12/12 06:26:55;;;;;;;92.37;26.97;;;;;;;;;;5023897;28;20460;-96
2021/12/12 06:45:48;;;;;;;96.43;28.20;;;;;;;;;;5020728;28;20492;-96
2021/12/12 06:48:15;;;;;;;95.77;28.93;;;;;;;;;;5016153;28;20449;-96
2021/12/12 06:50:43;;;;;;;102.97;30.37;;;;;;;;;;5012451;28;20456;-96
2021/12/12 06:53:12;;;;;;;99.00;30.10;;;;;;;;;;5011867;28;20483;-96
2021/12/12 06:55:45;;;;;;;93.80;27.40;;;;;;;;;;5020262;28;20450;-96
2021/12/12 07:22:40;;;;;;;121.47;40.70;;;;;;;;;;1616265;22;20743;-95
2021/12/12 07:28:05;;;;;;;126.20;43.77;;;;;;;;;;5196843;22;23178;-96
2021/12/12 07:30:33;;;;;;;126.27;46.07;;;;;;;;;;5054337;28;20495;-96
2021/12/12 07:33:00;;;;;;;131.07;47.97;;;;;;;;;;5049254;28;20514;-96
2021/12/12 07:35:35;;;;;;;133.70;48.63;;;;;;;;;;5045424;28;20492;-96
2021/12/12 07:56:57;;;;;;;102.33;33.00;;;;;;;;;;5635699;22;20264;-95
2021/12/12 07:59:24;;;;;;;108.80;37.70;;;;;;;;;;5040095;28;20443;-93
2021/12/12 08:01:51;;;;;;;132.77;51.70;;;;;;;;;;5035840;28;22401;-93
2021/12/12 08:15:45;;;;;;;121.90;47.60;;;;;;;;;;5049363;28;20903;-96
2021/12/12 08:18:21;;;;;;;115.93;40.90;;;;;;;;;;5049721;28;20470;-96
2021/12/12 08:20:49;;;;;;;120.80;47.30;;;;;;;;;;5047340;28;20435;-96
2021/12/12 08:26:03;;;;;;;121.30;47.53;;;;;;;;;;5047116;28;20431;-96
2021/12/12 08:31:15;;;;;;;126.00;49.77;;;;;;;;;;5047650;28;20439;-96
2021/12/12 08:33:47;;;;;;;123.60;49.43;;;;;;;;;;5043862;28;20479;-96
2021/12/12 08:36:16;;;;;;;127.67;49.67;;;;;;;;;;5044362;28;20445;-96
2021/12/12 08:38:43;;;;;;;127.20;48.83;;;;;;;;;;5049153;28;20475;-96
2021/12/12 08:41:10;;;;;;;118.93;46.83;;;;;;;;;;5043494;28;20477;-96
2021/12/12 08:43:37;;;;;;;117.03;47.43;;;;;;;;;;5045706;28;20469;-96
2021/12/12 08:46:10;;;;;;;124.77;49.53;;;;;;;;;;5045539;28;21113;-96
2021/12/12 08:48:39;;;;;;;117.37;46.03;;;;;;;;;;5044090;28;20528;-96
2021/12/12 08:51:10;;;;;;;111.37;43.43;;;;;;;;;;5045772;28;20456;-96
2021/12/12 08:53:37;;;;;;;108.30;39.03;;;;;;;;;;5046900;28;20476;-96
2021/12/12 08:58:48;;;;;;;107.87;40.80;;;;;;;;;;5046071;28;20434;-96
2021/12/12 09:01:19;;;;;;;108.97;43.77;;;;;;;;;;5045896;28;20440;-96
2021/12/12 09:03:52;;;;;;;111.97;42.10;;;;;;;;;;5047398;28;20465;-96
2021/12/12 09:06:24;;;;;;;108.93;41.23;;;;;;;;;;5046583;28;20449;-96
2021/12/12 09:08:58;;;;;;;115.97;42.37;;;;;;;;;;5048365;28;20444;-96
2021/12/12 09:11:28;;;;;;;112.67;43.87;;;;;;;;;;5045623;28;21070;-96
2021/12/12 09:13:58;;;;;;;116.20;47.83;;;;;;;;;;5042401;28;20488;-96
2021/12/12 09:16:26;;;;;;;117.50;44.83;;;;;;;;;;5042401;28;20441;-96
2021/12/12 09:18:55;;;;;;;102.30;35.80;;;;;;;;;;5041442;28;20530;-96
2021/12/12 09:21:28;;;;;;;103.37;30.40;;;;;;;;;;5043888;28;20446;-96
2021/12/12 09:24:03;;;;;;;95.70;31.10;;;;;;;;;;5045211;28;20457;-96
2021/12/12 09:26:35;;;;;;;91.03;29.07;;;;;;;;;;5041663;28;20429;-96
2021/12/12 09:29:07;;;;;;;87.70;24.73;;;;;;;;;;5078465;22;20558;-96
2021/12/12 09:31:38;;;;;;;85.17;26.37;;;;;;;;;;5053070;28;20446;-96
2021/12/12 09:34:11;;;;;;;80.17;21.50;;;;;;;;;;5053514;28;21888;-96
2021/12/12 09:36:42;;;;;;;78.63;17.30;;;;;;;;;;5055869;28;20562;-96
2021/12/12 09:39:10;;;;;;;77.00;17.30;;;;;;;;;;5051868;28;20460;-95
2021/12/12 09:41:57;;;;;;;72.67;15.60;;;;;;;;;;5052178;28;20457;-95
2021/12/12 09:44:38;;;;;;;74.87;17.10;;;;;;;;;;5044662;28;20455;-95
2021/12/12 09:47:26;;;;;;;73.67;15.67;;;;;;;;;;5036776;28;20454;-96
2021/12/12 09:52:56;;;;;;;74.90;17.30;;;;;;;;;;5052865;28;20509;-96
2021/12/12 09:55:25;;;;;;;73.37;15.77;;;;;;;;;;5053593;28;20963;-96
2021/12/12 09:57:54;;;;;;;70.70;14.27;;;;;;;;;;5055431;28;20455;-96
2021/12/12 10:00:25;;;;;;;74.80;15.63;;;;;;;;;;5059636;28;20447;-96
2021/12/12 10:02:56;;;;;;;77.60;16.90;;;;;;;;;;5059748;28;20533;-95
2021/12/12 10:05:27;;;;;;;73.67;15.73;;;;;;;;;;5061878;28;20454;-96
2021/12/12 10:07:59;;;;;;;72.50;14.60;;;;;;;;;;5059830;28;20447;-95
2021/12/12 10:10:28;;;;;;;73.20;15.10;;;;;;;;;;5061288;28;20815;-95
2021/12/12 10:12:58;;;;;;;69.77;13.90;;;;;;;;;;5061642;28;20885;-95
2021/12/12 10:15:25;;;;;;;67.93;12.13;;;;;;;;;;5062245;28;21711;-95
2021/12/12 10:17:55;;;;;;;71.17;14.00;;;;;;;;;;5060192;28;20508;-95
2021/12/12 10:20:23;;;;;;;70.70;14.53;;;;;;;;;;5060422;28;20443;-96
2021/12/12 10:22:55;;;;;;;68.60;13.27;;;;;;;;;;5061189;28;20444;-96
2021/12/12 10:25:27;;;;;;;69.30;13.73;;;;;;;;;;5061536;28;20478;-96
2021/12/12 10:27:56;;;;;;;70.23;14.57;;;;;;;;;;5060488;28;20443;-96
2021/12/12 10:30:25;;;;;;;70.13;14.17;;;;;;;;;;5071754;28;20474;-96
2021/12/12 10:32:55;;;;;;;71.30;14.53;;;;;;;;;;5070536;28;20509;-95
2021/12/12 10:35:24;;;;;;;69.67;14.20;;;;;;;;;;5069951;28;20582;-96
2021/12/12 10:37:54;;;;;;;71.77;14.97;;;;;;;;;;5069501;28;20440;-96
2021/12/12 10:40:23;;;;;;;79.73;16.47;;;;;;;;;;5069425;28;20934;-95
2021/12/12 10:42:58;;;;;;;79.13;16.30;;;;;;;;;;5070971;28;20439;-94
2021/12/12 10:45:27;;;;;;;73.50;15.90;;;;;;;;;;5071117;28;20473;-94
2021/12/12 10:47:56;;;;;;;75.13;16.30;;;;;;;;;;5070384;28;20588;-94
2021/12/12 10:50:27;;;;;;;76.60;17.87;;;;;;;;;;5071989;28;20481;-95
2021/12/12 10:52:58;;;;;;;72.90;16.13;;;;;;;;;;5073097;28;20964;-95
2021/12/12 10:55:30;;;;;;;74.50;16.23;;;;;;;;;;5076941;28;20479;-95
2021/12/12 10:58:01;;;;;;;72.60;15.20;;;;;;;;;;5073221;28;20579;-96
2021/12/12 11:00:30;;;;;;;71.10;14.03;;;;;;;;;;5073809;28;20455;-94
2021/12/12 11:03:03;;;;;;;70.10;13.83;;;;;;;;;;5081661;28;20448;-94
2021/12/12 11:05:32;;;;;;;70.33;13.10;;;;;;;;;;5077304;28;20479;-95
2021/12/12 11:08:04;;;;;;;68.73;13.70;;;;;;;;;;5070993;28;20452;-96
2021/12/12 11:10:34;;;;;;;66.80;12.30;;;;;;;;;;5051335;28;20466;-96
2021/12/12 11:13:05;;;;;;;63.73;9.27;;;;;;;;;;5071827;28;21077;-95
2021/12/12 11:15:36;;;;;;;63.80;9.53;;;;;;;;;;5069982;28;20483;-95
2021/12/12 11:20:42;;;;;;;64.50;10.07;;;;;;;;;;5138777;22;20483;-94
2021/12/12 11:23:10;;;;;;;63.93;9.93;;;;;;;;;;5039656;28;20537;-95
2021/12/12 11:25:38;;;;;;;68.53;12.20;;;;;;;;;;5039525;28;20449;-95
2021/12/12 11:28:10;;;;;;;66.10;10.70;;;;;;;;;;5041358;28;20741;-95
2021/12/12 11:30:41;;;;;;;62.87;9.27;;;;;;;;;;5040972;28;20446;-96
2021/12/12 11:33:10;;;;;;;62.97;8.40;;;;;;;;;;5040715;28;20441;-96
2021/12/12 11:35:38;;;;;;;63.07;8.77;;;;;;;;;;5041157;28;20498;-96
2021/12/12 11:38:07;;;;;;;63.23;8.93;;;;;;;;;;5040017;28;20474;-96
2021/12/12 11:40:37;;;;;;;64.00;9.40;;;;;;;;;;5039119;28;20522;-96
2021/12/12 11:43:05;;;;;;;64.03;8.90;;;;;;;;;;5039352;28;20936;-96
2021/12/12 11:45:38;;;;;;;65.57;9.93;;;;;;;;;;5039518;28;20514;-96
2021/12/12 11:48:20;;;;;;;66.80;12.07;;;;;;;;;;5039500;28;20444;-96
2021/12/12 11:50:50;;;;;;;68.87;11.30;;;;;;;;;;5038128;28;20436;-96
2021/12/12 11:53:23;;;;;;;65.10;10.90;;;;;;;;;;5041058;28;20445;-96
2021/12/12 11:55:51;;;;;;;66.17;11.30;;;;;;;;;;5042958;28;20488;-96
2021/12/12 11:58:23;;;;;;;77.13;19.67;;;;;;;;;;5041868;28;20455;-96
2021/12/12 12:00:56;;;;;;;84.20;22.97;;;;;;;;;;5048835;28;20446;-96
2021/12/12 12:06:47;;;;;;;78.77;17.13;;;;;;;;;;5041472;28;20484;-96
2021/12/12 12:12:05;;;;;;;76.23;16.20;;;;;;;;;;5075711;22;20566;-96
2021/12/12 12:14:35;;;;;;;68.67;12.30;;;;;;;;;;5043368;28;20476;-96
2021/12/12 12:17:16;;;;;;;71.30;12.77;;;;;;;;;;5045340;28;20424;-96
2021/12/12 12:20:09;;;;;;;71.77;13.93;;;;;;;;;;5046927;28;20438;-96
2021/12/12 12:22:47;;;;;;;71.30;13.90;;;;;;;;;;5047120;28;20737;-96
2021/12/12 12:25:19;;;;;;;69.57;14.20;;;;;;;;;;5049127;28;20455;-96
2021/12/12 12:27:53;;;;;;;70.37;14.60;;;;;;;;;;5062306;22;20530;-96
2021/12/12 12:30:38;;;;;;;73.67;14.63;;;;;;;;;;5055497;28;20478;-96
2021/12/12 12:52:32;;;;;;;75.00;16.30;;;;;;;;;;5353616;22;20506;-96
2021/12/12 12:55:18;;;;;;;73.80;15.67;;;;;;;;;;5053037;28;20484;-96
2021/12/12 12:57:46;;;;;;;72.70;14.67;;;;;;;;;;5041120;28;20440;-96
2021/12/12 13:03:36;;;;;;;71.93;14.53;;;;;;;;;;5045176;28;20451;-96
2021/12/12 13:06:32;;;;;;;74.43;16.23;;;;;;;;;;5041735;28;20438;-96
2021/12/12 13:09:21;;;;;;;73.00;14.60;;;;;;;;;;5036422;28;20542;-96
2021/12/12 13:14:22;;;;;;;71.50;13.37;;;;;;;;;;5050686;22;20463;-96
2021/12/12 13:16:51;;;;;;;72.40;14.80;;;;;;;;;;5054961;28;20187;-96
2021/12/12 13:30:28;;;;;;;70.97;13.23;;;;;;;;;;5104016;22;20486;31
2021/12/12 13:33:12;;;;;;;70.97;12.60;;;;;;;;;;4994950;28;20433;-96
2021/12/12 13:38:17;;;;;;;69.57;12.27;;;;;;;;;;5050797;28;20505;-95
2021/12/12 13:43:16;;;;;;;68.30;11.68;;;;;;;;;;5137413;22;20516;-96
2021/12/12 13:45:59;;;;;;;67.97;11.93;;;;;;;;;;5048073;28;20188;-96
2021/12/12 13:48:41;;;;;;;71.20;12.20;;;;;;;;;;5042412;28;20469;-96
2021/12/12 13:51:14;;;;;;;67.07;11.13;;;;;;;;;;5050294;28;20433;-96
2021/12/12 13:53:46;;;;;;;67.47;10.80;;;;;;;;;;5314421;22;20489;-96
2021/12/12 13:56:17;;;;;;;70.00;12.80;;;;;;;;;;5141977;22;20498;-95
2021/12/12 13:58:48;;;;;;;67.87;11.83;;;;;;;;;;5048107;28;20431;-95
2021/12/12 14:01:18;;;;;;;71.00;12.50;;;;;;;;;;5049100;28;20512;-96
2021/12/12 14:03:57;;;;;;;75.20;12.73;;;;;;;;;;5053510;28;20431;-96
2021/12/12 14:12:11;;;;;;;71.43;13.67;;;;;;;;;;5056972;22;20474;-96
2021/12/12 14:14:42;;;;;;;73.27;14.40;;;;;;;;;;5041115;28;20471;-96
2021/12/12 14:20:31;;;;;;;70.20;13.43;;;;;;;;;;5252241;22;20512;-96
2021/12/12 14:22:59;;;;;;;69.87;12.90;;;;;;;;;;5259220;22;20500;-96
2021/12/12 14:25:37;;;;;;;71.40;12.87;;;;;;;;;;5031297;28;20507;-96
2021/12/12 14:28:05;;;;;;;69.40;12.23;;;;;;;;;;5046273;23;20482;-96
2021/12/12 14:33:53;;;;;;;71.23;12.20;;;;;;;;;;5052405;28;20398;-96
2021/12/12 14:39:26;;;;;;;69.73;13.30;;;;;;;;;;5065772;22;20562;-96
2021/12/12 14:44:21;;;;;;;72.90;14.70;;;;;;;;;;5132083;22;20493;-96
2021/12/12 14:47:01;;;;;;;71.00;13.10;;;;;;;;;;5067421;22;20305;-96
2021/12/12 14:55:18;;;;;;;70.00;12.97;;;;;;;;;;5071968;23;20492;-96
2021/12/12 15:25:42;;;;;;;89.10;24.27;;;;;;;;;;5055937;23;20478;-96
2021/12/12 15:36:17;;;;;;;83.47;20.87;;;;;;;;;;6032324;22;21283;-96
2021/12/12 15:38:48;;;;;;;73.37;15.80;;;;;;;;;;5152969;22;20587;-96
2021/12/12 15:41:19;;;;;;;72.43;14.80;;;;;;;;;;5046269;28;20454;-96
2021/12/12 15:55:00;;;;;;;75.60;16.90;;;;;;;;;;6203099;22;20389;31
2021/12/12 16:11:27;;;;;;;78.97;17.57;;;;;;;;;;5395150;22;20499;-96
2021/12/12 16:33:19;;;;;;;75.80;18.60;;;;;;;;;;5028656;28;20459;-96
2021/12/12 16:35:46;;;;;;;78.00;17.80;;;;;;;;;;5021588;28;20865;-95
2021/12/12 16:38:17;;;;;;;77.13;18.33;;;;;;;;;;5057232;22;20523;-96
2021/12/12 16:40:46;;;;;;;79.90;18.90;;;;;;;;;;5001096;28;20444;-96
2021/12/12 16:43:15;;;;;;;79.90;18.83;;;;;;;;;;5001443;28;20460;-95
2021/12/12 16:45:44;;;;;;;76.13;17.50;;;;;;;;;;5001006;28;20489;-96
2021/12/12 16:48:17;;;;;;;76.90;18.57;;;;;;;;;;4998876;28;20530;-96
2021/12/12 16:50:46;;;;;;;79.20;19.80;;;;;;;;;;4999958;28;20834;-96
2021/12/12 16:53:12;;;;;;;78.10;19.33;;;;;;;;;;5000472;28;20544;-94
2021/12/12 16:55:42;;;;;;;78.43;18.07;;;;;;;;;;4999077;28;20489;-95
2021/12/12 16:58:12;;;;;;;78.97;17.93;;;;;;;;;;4998501;28;20452;-96
2021/12/12 17:00:40;;;;;;;81.90;18.30;;;;;;;;;;4998412;28;20796;-96
2021/12/12 17:03:10;;;;;;;75.63;17.17;;;;;;;;;;4998096;28;20449;-93
2021/12/12 17:05:45;;;;;;;78.93;18.47;;;;;;;;;;4998329;28;20511;-96
2021/12/12 17:08:17;;;;;;;78.07;18.90;;;;;;;;;;4998129;28;20511;-96
2021/12/12 17:10:45;;;;;;;77.27;17.93;;;;;;;;;;4998865;28;20456;-93
2021/12/12 17:13:12;;;;;;;78.20;18.63;;;;;;;;;;4998355;28;20548;-95
2021/12/12 17:15:39;;;;;;;76.15;16.88;;;;;;;;;;4998917;28;20479;-93
2021/12/12 17:18:09;;;;;;;73.97;15.30;;;;;;;;;;5002554;28;20201;-94
2021/12/12 17:20:38;;;;;;;74.20;15.60;;;;;;;;;;5009971;28;20520;-96
2021/12/12 17:23:07;;;;;;;73.07;16.00;;;;;;;;;;5004304;28;20459;-96
2021/12/12 17:25:34;;;;;;;74.57;16.07;;;;;;;;;;5000473;28;20433;-95
2021/12/12 17:28:01;;;;;;;74.47;15.63;;;;;;;;;;4999090;28;20492;-95
2021/12/12 17:30:30;;;;;;;73.50;16.10;;;;;;;;;;4998899;28;20507;-93
2021/12/12 17:33:04;;;;;;;76.30;16.90;;;;;;;;;;4998028;28;20445;-94
2021/12/12 17:35:33;;;;;;;74.83;16.37;;;;;;;;;;4998253;28;20506;-95
2021/12/12 17:38:01;;;;;;;74.00;16.70;;;;;;;;;;4997485;28;20472;-93
2021/12/12 17:40:32;;;;;;;71.00;14.30;;;;;;;;;;4998396;28;20476;-96
2021/12/12 17:43:18;;;;;;;74.40;16.00;;;;;;;;;;4993721;28;20449;-96
2021/12/12 17:46:05;;;;;;;71.57;14.47;;;;;;;;;;4999219;28;20495;-95
2021/12/12 17:48:50;;;;;;;69.63;13.27;;;;;;;;;;4998656;28;20451;-95
2021/12/12 17:51:35;;;;;;;71.63;14.03;;;;;;;;;;4998434;28;20535;-96
2021/12/12 17:54:05;;;;;;;74.67;14.07;;;;;;;;;;4966115;28;21624;-95
2021/12/12 17:56:37;;;;;;;72.40;15.60;;;;;;;;;;4996914;28;20492;-94
2021/12/12 17:59:06;;;;;;;72.00;14.43;;;;;;;;;;4998244;28;20479;-94
2021/12/12 18:01:36;;;;;;;74.30;14.57;;;;;;;;;;4996973;28;20461;-95
2021/12/12 18:04:05;;;;;;;79.40;14.83;;;;;;;;;;4995495;28;21458;-95
2021/12/12 18:06:32;;;;;;;74.60;15.30;;;;;;;;;;4998589;28;20457;-94
2021/12/12 18:09:04;;;;;;;73.20;14.27;;;;;;;;;;5002025;28;20680;-96
2021/12/12 18:11:33;;;;;;;71.50;14.25;;;;;;;;;;5001450;28;20226;-95
2021/12/12 18:14:03;;;;;;;73.90;14.50;;;;;;;;;;5001374;28;20221;-95
2021/12/12 18:16:49;;;;;;;72.67;14.07;;;;;;;;;;4982412;28;20488;-95
2021/12/12 18:19:34;;;;;;;73.33;14.70;;;;;;;;;;5001560;28;20440;-94
2021/12/12 18:22:06;;;;;;;74.30;14.47;;;;;;;;;;5001560;28;20531;-94
2021/12/12 18:24:35;;;;;;;73.20;14.00;;;;;;;;;;5002888;28;20448;-96
2021/12/12 18:27:05;;;;;;;76.20;13.37;;;;;;;;;;5059214;22;20564;-94
2021/12/12 18:29:40;;;;;;;74.10;14.57;;;;;;;;;;5040634;28;20441;-95
2021/12/12 18:32:08;;;;;;;73.13;13.23;;;;;;;;;;5030256;28;20454;-96
2021/12/12 18:34:40;;;;;;;71.13;12.87;;;;;;;;;;5041355;28;20465;-96
2021/12/12 18:37:08;;;;;;;71.20;14.27;;;;;;;;;;5042587;28;20486;-95
2021/12/12 18:39:36;;;;;;;72.07;14.20;;;;;;;;;;5040609;28;20442;-93
2021/12/12 18:42:04;;;;;;;69.50;13.70;;;;;;;;;;5040446;28;20478;-93
2021/12/12 18:44:32;;;;;;;71.57;14.03;;;;;;;;;;5040448;28;20446;-94
2021/12/12 18:47:03;;;;;;;67.60;12.00;;;;;;;;;;5039526;28;20474;-96
2021/12/12 18:49:31;;;;;;;71.67;12.70;;;;;;;;;;5041217;28;20451;-94
2021/12/12 18:52:05;;;;;;;71.87;13.53;;;;;;;;;;5038742;28;20455;-93
2021/12/12 18:54:38;;;;;;;72.05;13.35;;;;;;;;;;5041157;28;20462;-96
2021/12/12 18:57:05;;;;;;;;;;;;;;;;;;5043153;28;20049;-94
2021/12/12 18:59:31;;;;;;;;;;;;;;;;;;5042276;28;19921;-96
2021/12/12 19:01:58;;;;;;;;;;;;;;;;;;5046483;28;19929;-96
2021/12/12 19:04:24;;;;;;;;;;;;;;;;;;5046975;28;19921;-96
2021/12/12 19:06:50;;;;;;;;;;;;;;;;;;5045432;28;19979;-96
2021/12/12 19:09:16;;;;;;;;;;;;;;;;;;5037954;28;19951;-95